createdAt,value
2023-01-31T00:01:41.259Z,100485.69
2023-01-31T00:04:12.644Z,100495.13
2023-01-31T00:06:50.848Z,100493.38
2023-01-31T00:09:18.050Z,100488.19
2023-01-31T00:11:45.031Z,100487.38
2023-01-31T00:14:21.472Z,100491.63
2023-01-31T00:16:48.719Z,100501.09
2023-01-31T00:19:15.640Z,100503.69
2023-01-31T00:21:43.925Z,100503.66
2023-01-31T00:24:13.897Z,100510.47
2023-01-31T00:26:41.254Z,100514.69
2023-01-31T00:29:08.243Z,100517.19
2023-01-31T00:31:36.229Z,100513.75
2023-01-31T00:34:03.310Z,100524.13
2023-01-31T00:36:33.362Z,100521.59
2023-01-31T00:39:04.150Z,100540.53
2023-01-31T00:41:32.499Z,100548.28
2023-01-31T00:43:59.570Z,100543.94
2023-01-31T00:46:27.312Z,100536.25
2023-01-31T00:48:56.318Z,100531.03
2023-01-31T00:51:26.662Z,100537.03
2023-01-31T00:53:54.719Z,100556.09
2023-01-31T00:56:24.352Z,100549.38
2023-01-31T00:58:52.271Z,100552.25
2023-01-31T01:01:26.646Z,100561.16
2023-01-31T01:03:55.754Z,100578.78
2023-01-31T01:06:23.813Z,100562.78
2023-01-31T01:08:50.877Z,100572.47
2023-01-31T01:11:26.889Z,100564.16
2023-01-31T01:13:54.432Z,100579.03
2023-01-31T01:16:42.276Z,100576.66
2023-01-31T01:19:15.372Z,100584.69
2023-01-31T01:21:44.325Z,100591.72
2023-01-31T01:24:18.501Z,100582.44
2023-01-31T01:26:46.302Z,100593.75
2023-01-31T01:29:13.853Z,100604.16
2023-01-31T01:31:41.419Z,100589.50
2023-01-31T01:34:13.966Z,100595.53
2023-01-31T01:36:42.296Z,100594.66
2023-01-31T01:39:11.781Z,100593.81
2023-01-31T01:41:40.547Z,100582.59
2023-01-31T01:44:46.196Z,100598.19
2023-01-31T01:47:36.313Z,100611.03
2023-01-31T01:50:30.201Z,100618.78
2023-01-31T01:53:21.687Z,100623.09
2023-01-31T01:56:02.246Z,100628.31
2023-01-31T01:58:44.607Z,100627.44
2023-01-31T02:01:13.778Z,100640.34
2023-01-31T02:03:41.529Z,100647.22
2023-01-31T02:06:08.665Z,100650.63
2023-01-31T02:08:38.528Z,100638.56
2023-01-31T02:11:23.201Z,100652.31
2023-01-31T02:13:55.333Z,100659.34
2023-01-31T02:16:22.427Z,100667.16
2023-01-31T02:18:49.736Z,100661.16
2023-01-31T02:21:28.943Z,100675.84
2023-01-31T02:24:04.314Z,100672.44
2023-01-31T02:26:59.078Z,100682.78
2023-01-31T02:30:03.292Z,100685.34
2023-01-31T02:32:46.818Z,100691.41
2023-01-31T02:36:34.411Z,100697.47
2023-01-31T02:39:09.672Z,100701.91
2023-01-31T02:42:06.011Z,100704.44
2023-01-31T02:45:01.933Z,100697.50
2023-01-31T02:48:06.847Z,100699.91
2023-01-31T02:51:01.071Z,100699.59
2023-01-31T02:53:41.235Z,100693.09
2023-01-31T02:56:15.258Z,100685.72
2023-01-31T02:59:08.761Z,100692.06
2023-01-31T03:01:44.465Z,100702.78
2023-01-31T03:04:13.900Z,100689.59
2023-01-31T03:06:59.993Z,100690.06
2023-01-31T03:09:36.792Z,100685.41
2023-01-31T03:12:24.859Z,100682.41
2023-01-31T03:15:06.626Z,100685.63
2023-01-31T03:18:02.191Z,100673.41
2023-01-31T03:20:47.566Z,100687.09
2023-01-31T03:23:21.904Z,100693.81
2023-01-31T03:25:50.177Z,100681.59
2023-01-31T03:28:23.515Z,100685.81
2023-01-31T03:31:16.585Z,100690.84
2023-01-31T03:33:49.101Z,100709.66
2023-01-31T03:36:27.310Z,100712.03
2023-01-31T03:38:58.658Z,100714.50
2023-01-31T03:41:56.983Z,100718.69
2023-01-31T03:44:32.800Z,100716.06
2023-01-31T03:47:12.404Z,100720.34
2023-01-31T03:49:42.638Z,100732.31
2023-01-31T03:52:13.044Z,100730.47
2023-01-31T03:54:48.295Z,100728.63
2023-01-31T03:57:20.472Z,100729.38
2023-01-31T03:59:55.679Z,100737.94
2023-01-31T04:02:30.068Z,100741.31
2023-01-31T04:05:08.200Z,100737.94
2023-01-31T04:07:37.088Z,100735.28
2023-01-31T04:10:09.923Z,100736.88
2023-01-31T04:12:37.759Z,100734.16
2023-01-31T04:15:06.629Z,100740.06
2023-01-31T04:17:33.691Z,100748.59
2023-01-31T04:20:01.336Z,100742.56
2023-01-31T04:22:28.709Z,100752.00
2023-01-31T04:24:55.766Z,100743.38
2023-01-31T04:27:22.840Z,100742.50
2023-01-31T04:29:49.791Z,100745.06
2023-01-31T04:32:16.890Z,100749.41
2023-01-31T04:34:44.010Z,100752.00
2023-01-31T04:37:11.263Z,100759.66
2023-01-31T04:39:38.282Z,100764.75
2023-01-31T04:42:05.352Z,100758.63
2023-01-31T04:44:32.325Z,100758.53
2023-01-31T04:46:59.387Z,100779.91
2023-01-31T04:49:27.194Z,100772.97
2023-01-31T04:51:54.135Z,100782.41
2023-01-31T04:54:21.797Z,100778.06
2023-01-31T04:56:48.799Z,100782.41
2023-01-31T04:59:16.079Z,100779.00
2023-01-31T05:01:43.176Z,100786.03
2023-01-31T05:04:10.929Z,100787.00
2023-01-31T05:06:37.907Z,100775.13
2023-01-31T05:09:05.468Z,100780.44
2023-01-31T05:11:32.700Z,100777.91
2023-01-31T05:13:59.647Z,100779.63
2023-01-31T05:16:26.719Z,100788.22
2023-01-31T05:18:53.850Z,100781.44
2023-01-31T05:21:20.853Z,100785.00
2023-01-31T05:23:47.858Z,100781.63
2023-01-31T05:26:14.945Z,100783.47
2023-01-31T05:28:42.862Z,100791.28
2023-01-31T05:31:10.326Z,100787.00
2023-01-31T05:33:37.489Z,100786.19
2023-01-31T05:36:04.984Z,100798.41
2023-01-31T05:38:32.075Z,100790.09
2023-01-31T05:40:58.995Z,100795.66
2023-01-31T05:43:25.951Z,100806.44
2023-01-31T05:45:53.005Z,100803.34
2023-01-31T05:48:19.961Z,100805.38
2023-01-31T05:50:49.960Z,100798.09
2023-01-31T05:53:16.928Z,100798.41
2023-01-31T05:55:44.659Z,100808.16
2023-01-31T05:58:11.738Z,100802.44
2023-01-31T06:00:38.737Z,100816.31
2023-01-31T06:03:05.747Z,100820.00
2023-01-31T06:05:33.222Z,100802.94
2023-01-31T06:08:00.342Z,100811.69
2023-01-31T06:10:27.510Z,100805.88
2023-01-31T06:12:54.478Z,100805.94
2023-01-31T06:15:21.640Z,100806.94
2023-01-31T06:17:48.815Z,100800.13
2023-01-31T06:20:17.140Z,100809.66
2023-01-31T06:22:44.142Z,100818.34
2023-01-31T06:25:11.135Z,100808.03
2023-01-31T06:27:38.113Z,100818.44
2023-01-31T06:30:05.528Z,100836.59
2023-01-31T06:32:32.936Z,100838.34
2023-01-31T06:35:00.092Z,100832.38
2023-01-31T06:37:27.049Z,100835.03
2023-01-31T06:39:54.176Z,100836.84
2023-01-31T06:42:21.478Z,100836.09
2023-01-31T06:44:48.410Z,100833.56
2023-01-31T06:47:15.518Z,100833.59
2023-01-31T06:49:42.576Z,100827.63
2023-01-31T06:52:09.552Z,100838.91
2023-01-31T06:54:36.563Z,100837.25
2023-01-31T06:57:03.679Z,100835.75
2023-01-31T06:59:30.723Z,100844.44
2023-01-31T07:01:57.852Z,100840.16
2023-01-31T07:04:24.986Z,100833.28
2023-01-31T07:06:52.607Z,100837.59
2023-01-31T07:09:19.627Z,100817.00
2023-01-31T07:11:46.568Z,100836.91
2023-01-31T07:14:13.672Z,100840.38
2023-01-31T07:16:40.650Z,100830.97
2023-01-31T07:19:07.787Z,100822.41
2023-01-31T07:21:36.651Z,100806.91
2023-01-31T07:24:04.686Z,100810.50
2023-01-31T07:26:31.645Z,100815.72
2023-01-31T07:28:58.856Z,100826.94
2023-01-31T07:31:25.821Z,100827.84
2023-01-31T07:33:52.920Z,100833.16
2023-01-31T07:36:24.498Z,100829.81
2023-01-31T07:38:55.945Z,100826.47
2023-01-31T07:41:26.676Z,100829.97
2023-01-31T07:43:53.963Z,100834.28
2023-01-31T07:46:21.096Z,100832.63
2023-01-31T07:48:48.321Z,100829.28
2023-01-31T07:51:15.342Z,100826.72
2023-01-31T07:53:43.083Z,100834.47
2023-01-31T07:56:21.869Z,100831.13
2023-01-31T07:58:50.454Z,100820.16
2023-01-31T08:01:41.954Z,100818.63
2023-01-31T08:04:21.079Z,100818.00
2023-01-31T08:06:52.219Z,100820.78
2023-01-31T08:09:19.273Z,100816.53
2023-01-31T08:11:46.245Z,100820.97
2023-01-31T08:14:13.213Z,100816.78
2023-01-31T08:16:40.165Z,100816.16
2023-01-31T08:19:07.307Z,100820.63
2023-01-31T08:21:34.246Z,100813.03
2023-01-31T08:24:02.206Z,100817.47
2023-01-31T08:26:29.404Z,100807.94
2023-01-31T08:28:57.870Z,100819.88
2023-01-31T08:31:27.105Z,100807.81
2023-01-31T08:33:55.871Z,100807.03
2023-01-31T08:36:26.843Z,100806.28
2023-01-31T08:38:55.633Z,100800.16
2023-01-31T08:41:25.355Z,100793.06
2023-01-31T08:43:56.645Z,100800.75
2023-01-31T08:46:27.874Z,100804.16
2023-01-31T08:48:55.182Z,100795.66
2023-01-31T08:51:22.956Z,100795.00
2023-01-31T08:53:50.454Z,100795.22
2023-01-31T08:56:17.558Z,100786.75
2023-01-31T08:58:45.463Z,100785.22
2023-01-31T09:01:18.981Z,100793.13
2023-01-31T09:03:47.241Z,100788.09
2023-01-31T09:06:21.091Z,100784.81
2023-01-31T09:08:49.008Z,100784.91
2023-01-31T09:11:19.167Z,100784.16
2023-01-31T09:13:51.316Z,100784.22
2023-01-31T09:16:19.925Z,100772.09
2023-01-31T09:18:47.333Z,100768.63
2023-01-31T09:21:21.532Z,100762.56
2023-01-31T09:23:49.233Z,100760.72
2023-01-31T09:26:17.008Z,100766.84
2023-01-31T09:28:45.486Z,100763.44
2023-01-31T09:31:20.869Z,100767.00
2023-01-31T09:33:48.251Z,100760.28
2023-01-31T09:36:19.124Z,100754.47
2023-01-31T09:38:46.446Z,100748.59
2023-01-31T09:41:43.064Z,100751.44
2023-01-31T09:44:39.915Z,100744.78
2023-01-31T09:47:32.291Z,100738.91
2023-01-31T09:50:06.468Z,100736.44
2023-01-31T09:52:34.094Z,100743.69
2023-01-31T09:55:02.231Z,100725.78
2023-01-31T09:58:04.550Z,100730.41
2023-01-31T10:00:43.788Z,100724.59
2023-01-31T10:03:44.758Z,100720.38
2023-01-31T10:06:24.956Z,100729.09
2023-01-31T10:08:57.402Z,100713.53
2023-01-31T10:11:46.003Z,100716.09
2023-01-31T10:14:34.469Z,100704.09
2023-01-31T10:17:15.778Z,100699.81
2023-01-31T10:20:23.795Z,100704.22
2023-01-31T10:23:25.569Z,100693.00
2023-01-31T10:26:02.220Z,100695.66
2023-01-31T10:28:56.662Z,100683.66
2023-01-31T10:31:28.334Z,100683.72
2023-01-31T10:34:15.061Z,100677.59
2023-01-31T10:36:58.365Z,100670.28
2023-01-31T10:39:35.354Z,100659.56
2023-01-31T10:42:15.935Z,100648.03
2023-01-31T10:44:58.074Z,100652.19
2023-01-31T10:47:38.012Z,100650.41
2023-01-31T10:50:31.052Z,100647.97
2023-01-31T10:53:25.958Z,100647.44
2023-01-31T10:56:05.213Z,100647.69
2023-01-31T10:58:32.780Z,100639.22
2023-01-31T11:00:59.971Z,100627.38
2023-01-31T11:03:26.999Z,100623.25
2023-01-31T11:05:58.335Z,100625.19
2023-01-31T11:08:40.412Z,100608.00
2023-01-31T11:11:23.779Z,100599.47
2023-01-31T11:14:11.407Z,100602.25
2023-01-31T11:16:40.037Z,100599.81
2023-01-31T11:19:39.739Z,100597.09
2023-01-31T11:22:08.205Z,100587.47
2023-01-31T11:24:38.759Z,100582.06
2023-01-31T11:27:08.073Z,100572.34
2023-01-31T11:29:45.716Z,100558.28
2023-01-31T11:32:23.974Z,100562.41
2023-01-31T11:35:02.188Z,100545.00
2023-01-31T11:37:31.116Z,100539.78
2023-01-31T11:40:18.457Z,100534.59
2023-01-31T11:43:01.089Z,100536.31
2023-01-31T11:45:31.358Z,100530.34
2023-01-31T11:48:17.597Z,100519.09
2023-01-31T11:50:58.199Z,100517.31
2023-01-31T11:53:45.652Z,100520.75
2023-01-31T11:56:24.528Z,100511.16
2023-01-31T11:59:04.122Z,100506.88
2023-01-31T12:01:31.560Z,100493.91
2023-01-31T12:04:05.081Z,100485.28
2023-01-31T12:06:41.883Z,100465.41
2023-01-31T12:09:25.731Z,100462.78
2023-01-31T12:12:06.394Z,100459.19
2023-01-31T12:14:48.042Z,100446.84
2023-01-31T12:17:19.164Z,100438.00
2023-01-31T12:20:01.259Z,100433.50
2023-01-31T12:22:37.476Z,100432.50
2023-01-31T12:25:39.328Z,100429.00
2023-01-31T12:28:38.347Z,100418.53
2023-01-31T12:31:21.163Z,100409.75
2023-01-31T12:34:10.125Z,100407.00
2023-01-31T12:37:13.487Z,100401.72
2023-01-31T12:40:24.577Z,100393.84
2023-01-31T12:43:12.633Z,100380.06
2023-01-31T12:46:02.743Z,100380.81
2023-01-31T12:49:15.396Z,100385.00
2023-01-31T12:52:19.008Z,100388.38
2023-01-31T12:55:19.945Z,100368.19
2023-01-31T12:58:18.583Z,100371.41
2023-01-31T13:01:07.051Z,100365.19
2023-01-31T13:03:58.291Z,100357.22
2023-01-31T13:06:33.708Z,100367.41
2023-01-31T13:09:24.288Z,100353.41
2023-01-31T13:12:20.036Z,100358.44
2023-01-31T13:15:04.108Z,100356.69
2023-01-31T13:17:33.966Z,100351.59
2023-01-31T13:20:12.304Z,100339.53
2023-01-31T13:22:47.103Z,100332.72
2023-01-31T13:25:29.299Z,100344.78
2023-01-31T13:28:22.756Z,100337.06
2023-01-31T13:31:10.296Z,100329.41
2023-01-31T13:33:46.597Z,100333.81
2023-01-31T13:36:37.726Z,100326.91
2023-01-31T13:39:24.580Z,100325.19
2023-01-31T13:41:51.676Z,100332.97
2023-01-31T13:44:20.764Z,100321.78
2023-01-31T13:47:05.767Z,100320.91
2023-01-31T13:49:40.392Z,100312.25
2023-01-31T13:52:21.296Z,100316.56
2023-01-31T13:54:53.367Z,100317.44
2023-01-31T13:57:30.215Z,100315.69
2023-01-31T14:00:22.267Z,100323.50
2023-01-31T14:03:10.344Z,100326.00
2023-01-31T14:05:43.451Z,100319.94
2023-01-31T14:08:50.413Z,100320.72
2023-01-31T14:11:17.291Z,100307.78
2023-01-31T14:14:19.884Z,100317.13
2023-01-31T14:16:51.695Z,100313.59
2023-01-31T14:19:19.803Z,100310.97
2023-01-31T14:22:13.995Z,100295.44
2023-01-31T14:24:47.063Z,100301.50
2023-01-31T14:27:37.037Z,100289.44
2023-01-31T14:30:06.903Z,100286.09
2023-01-31T14:32:39.942Z,100293.03
2023-01-31T14:35:12.795Z,100289.53
2023-01-31T14:37:54.630Z,100290.31
2023-01-31T14:40:46.296Z,100288.59
2023-01-31T14:43:25.588Z,100270.44
2023-01-31T14:46:23.604Z,100277.34
2023-01-31T14:49:08.664Z,100269.53
2023-01-31T14:52:10.477Z,100272.06
2023-01-31T14:55:38.662Z,100273.00
2023-01-31T14:58:18.684Z,100276.47
2023-01-31T15:00:54.596Z,100270.44
2023-01-31T15:03:33.555Z,100256.69
2023-01-31T15:06:23.377Z,100249.84
2023-01-31T15:08:51.929Z,100250.81
2023-01-31T15:11:42.920Z,100262.88
2023-01-31T15:14:45.253Z,100242.16
2023-01-31T15:17:27.674Z,100238.78
2023-01-31T15:20:24.497Z,100250.94
2023-01-31T15:22:55.666Z,100232.91
2023-01-31T15:25:33.864Z,100251.03
2023-01-31T15:28:01.410Z,100251.91
2023-01-31T15:30:30.564Z,100240.75
2023-01-31T15:33:22.470Z,100241.72
2023-01-31T15:36:27.679Z,100251.25
2023-01-31T15:38:59.076Z,100251.28
2023-01-31T15:41:39.606Z,100249.63
2023-01-31T15:44:23.799Z,100238.38
2023-01-31T15:46:53.864Z,100254.78
2023-01-31T15:49:39.746Z,100244.47
2023-01-31T15:52:22.868Z,100239.31
2023-01-31T15:55:08.482Z,100235.84
2023-01-31T15:58:01.027Z,100226.41
2023-01-31T16:00:31.807Z,100229.03
2023-01-31T16:03:02.363Z,100232.50
2023-01-31T16:05:38.768Z,100239.44
2023-01-31T16:08:21.778Z,100225.66
2023-01-31T16:10:50.331Z,100239.50
2023-01-31T16:13:18.481Z,100221.38
2023-01-31T16:15:46.055Z,100233.50
2023-01-31T16:18:13.647Z,100233.63
2023-01-31T16:20:49.115Z,100234.50
2023-01-31T16:23:38.790Z,100242.34
2023-01-31T16:26:25.837Z,100237.22
2023-01-31T16:28:59.166Z,100244.13
2023-01-31T16:31:37.037Z,100259.72
2023-01-31T16:34:09.570Z,100247.69
2023-01-31T16:37:29.599Z,100252.00
2023-01-31T16:40:19.285Z,100246.03
2023-01-31T16:42:46.544Z,100246.94
2023-01-31T16:45:34.252Z,100236.63
2023-01-31T16:48:31.736Z,100245.38
2023-01-31T16:51:21.329Z,100245.41
2023-01-31T16:54:14.009Z,100244.56
2023-01-31T16:56:41.244Z,100220.38
2023-01-31T16:59:34.201Z,100216.09
2023-01-31T17:02:16.539Z,100201.41
2023-01-31T17:04:45.720Z,100201.47
2023-01-31T17:07:21.963Z,100203.16
2023-01-31T17:09:49.702Z,100197.94
2023-01-31T17:12:30.346Z,100212.63
2023-01-31T17:15:00.856Z,100219.56
2023-01-31T17:17:37.551Z,100213.50
2023-01-31T17:20:05.299Z,100223.03
2023-01-31T17:22:32.381Z,100202.28
2023-01-31T17:24:59.386Z,100202.28
2023-01-31T17:27:26.640Z,100205.75
2023-01-31T17:29:53.616Z,100199.75
2023-01-31T17:32:21.703Z,100189.41
2023-01-31T17:34:49.053Z,100186.78
2023-01-31T17:37:20.781Z,100172.94
2023-01-31T17:39:50.865Z,100172.97
2023-01-31T17:42:21.249Z,100172.97
2023-01-31T17:44:48.499Z,100161.78
2023-01-31T17:47:15.685Z,100166.13
2023-01-31T17:49:44.459Z,100155.81
2023-01-31T17:52:12.020Z,100159.31
2023-01-31T17:54:39.106Z,100160.19
2023-01-31T17:57:06.084Z,100152.47
2023-01-31T17:59:33.099Z,100130.88
2023-01-31T18:02:00.621Z,100123.16
2023-01-31T18:04:27.689Z,100083.44
2023-01-31T18:06:55.306Z,100100.88
2023-01-31T18:09:22.367Z,100103.56
2023-01-31T18:11:49.384Z,100117.41
2023-01-31T18:14:16.576Z,100110.47
2023-01-31T18:16:43.629Z,100124.28
2023-01-31T18:19:11.647Z,100114.78
2023-01-31T18:21:41.462Z,100123.44
2023-01-31T18:24:14.118Z,100102.69
2023-01-31T18:26:41.147Z,100115.69
2023-01-31T18:29:08.323Z,100122.66
2023-01-31T18:31:35.553Z,100118.41
2023-01-31T18:34:02.599Z,100116.81
2023-01-31T18:36:29.640Z,100094.38
2023-01-31T18:38:56.649Z,100094.41
2023-01-31T18:41:23.696Z,100084.91
2023-01-31T18:43:50.732Z,100084.03
2023-01-31T18:46:18.216Z,100087.47
2023-01-31T18:48:45.879Z,100087.47
2023-01-31T18:51:14.822Z,100077.94
2023-01-31T18:53:45.542Z,100079.72
2023-01-31T18:56:23.666Z,100092.72
2023-01-31T18:58:52.512Z,100091.03
2023-01-31T19:01:23.666Z,100072.91
2023-01-31T19:03:58.181Z,100085.81
2023-01-31T19:06:29.381Z,100095.34
2023-01-31T19:08:58.453Z,100097.09
2023-01-31T19:11:27.714Z,100097.13
2023-01-31T19:13:55.604Z,100090.28
2023-01-31T19:16:26.807Z,100103.28
2023-01-31T19:18:56.629Z,100073.94
2023-01-31T19:21:26.047Z,100076.53
2023-01-31T19:23:57.031Z,100075.75
2023-01-31T19:26:24.348Z,100089.63
2023-01-31T19:28:51.742Z,100091.41
2023-01-31T19:31:24.782Z,100086.25
2023-01-31T19:33:57.767Z,100170.88
2023-01-31T19:36:32.146Z,100171.50
2023-01-31T19:39:02.175Z,100148.28
2023-01-31T19:41:29.419Z,100160.78
2023-01-31T19:43:59.128Z,100169.31
2023-01-31T19:46:29.175Z,100155.78
2023-01-31T19:48:57.251Z,100125.53
2023-01-31T19:51:25.705Z,100099.66
2023-01-31T19:53:58.928Z,100133.31
2023-01-31T19:56:26.074Z,100146.34
2023-01-31T19:58:53.196Z,100144.63
2023-01-31T20:01:20.318Z,100155.78
2023-01-31T20:03:47.597Z,100150.47
2023-01-31T20:06:17.272Z,100164.06
2023-01-31T20:08:49.128Z,100158.81
2023-01-31T20:11:16.348Z,100167.38
2023-01-31T20:13:43.326Z,100170.88
2023-01-31T20:16:12.897Z,100176.25
2023-01-31T20:18:41.716Z,100176.41
2023-01-31T20:21:19.981Z,100178.16
2023-01-31T20:23:47.077Z,100182.59
2023-01-31T20:26:16.531Z,100178.50
2023-01-31T20:28:44.542Z,100184.63
2023-01-31T20:31:14.292Z,100188.13
2023-01-31T20:33:41.530Z,100187.28
2023-01-31T20:36:09.935Z,100189.91
2023-01-31T20:38:40.469Z,100183.91
2023-01-31T20:41:09.293Z,100180.41
2023-01-31T20:43:37.097Z,100191.63
2023-01-31T20:46:07.696Z,100186.44
2023-01-31T20:48:34.770Z,100189.88
2023-01-31T20:51:02.201Z,100205.38
2023-01-31T20:53:29.756Z,100205.31
2023-01-31T20:56:03.390Z,100194.97
2023-01-31T20:58:34.551Z,100210.53
2023-01-31T21:01:05.502Z,100209.66
2023-01-31T21:03:34.615Z,100205.31
2023-01-31T21:06:03.482Z,100215.72
2023-01-31T21:08:35.575Z,100219.22
2023-01-31T21:11:07.671Z,100215.81
2023-01-31T21:13:35.375Z,100214.09
2023-01-31T21:16:05.304Z,100224.47
2023-01-31T21:18:36.585Z,100228.00
2023-01-31T21:21:09.436Z,100234.06
2023-01-31T21:23:38.149Z,100236.81
2023-01-31T21:26:08.382Z,100235.44
2023-01-31T21:28:36.048Z,100229.72
2023-01-31T21:31:11.037Z,100234.38
2023-01-31T21:33:38.271Z,100233.81
2023-01-31T21:36:10.879Z,100244.44
2023-01-31T21:38:38.566Z,100238.69
2023-01-31T21:41:24.581Z,100258.69
2023-01-31T21:43:51.587Z,100264.75
2023-01-31T21:46:18.975Z,100288.00
2023-01-31T21:48:45.998Z,100287.72
2023-01-31T21:51:15.991Z,100273.22
2023-01-31T21:53:43.524Z,100237.16
2023-01-31T21:56:17.755Z,100263.97
2023-01-31T21:58:45.871Z,100254.72
2023-01-31T22:01:18.750Z,100258.41
2023-01-31T22:03:49.965Z,100268.84
2023-01-31T22:06:26.987Z,100268.25
2023-01-31T22:08:57.966Z,100261.69
2023-01-31T22:11:25.823Z,100264.88
2023-01-31T22:13:56.151Z,100264.69
2023-01-31T22:16:23.953Z,100262.00
2023-01-31T22:18:51.593Z,100247.31
2023-01-31T22:21:33.553Z,100248.94
2023-01-31T22:24:03.791Z,100246.38
2023-01-31T22:26:41.066Z,100242.19
2023-01-31T22:29:11.984Z,100250.03
2023-01-31T22:31:39.309Z,100247.53
2023-01-31T22:34:08.832Z,100256.19
2023-01-31T22:36:36.424Z,100249.34
2023-01-31T22:39:03.531Z,100250.28
2023-01-31T22:41:30.725Z,100247.00
2023-01-31T22:43:57.677Z,100253.97
2023-01-31T22:46:28.680Z,100246.34
2023-01-31T22:48:56.239Z,100245.56
2023-01-31T22:51:26.789Z,100248.22
2023-01-31T22:53:58.465Z,100247.50
2023-01-31T22:56:31.946Z,100236.44
2023-01-31T22:59:02.503Z,100252.97
2023-01-31T23:01:36.828Z,100252.13
2023-01-31T23:04:07.493Z,100250.47
2023-01-31T23:06:35.712Z,100241.13
2023-01-31T23:09:03.057Z,100245.50
2023-01-31T23:11:30.082Z,100252.53
2023-01-31T23:13:57.542Z,100256.16
2023-01-31T23:16:46.223Z,100258.91
2023-01-31T23:19:14.946Z,100250.50
2023-01-31T23:21:42.815Z,100249.00
2023-01-31T23:24:11.015Z,100259.66
2023-01-31T23:26:38.283Z,100251.38
2023-01-31T23:29:05.400Z,100237.78
2023-01-31T23:31:32.728Z,100237.16
2023-01-31T23:34:00.814Z,100228.63
2023-01-31T23:36:28.383Z,100243.34
2023-01-31T23:38:55.455Z,100243.41
2023-01-31T23:41:22.416Z,100233.16
2023-01-31T23:43:49.403Z,100242.75
2023-01-31T23:46:16.432Z,100224.78
2023-01-31T23:48:43.526Z,100226.56
2023-01-31T23:51:10.524Z,100248.09
2023-01-31T23:53:37.514Z,100239.34
2023-01-31T23:56:04.682Z,100249.50
2023-01-31T23:58:31.758Z,100257.16
